sensor_id;sensor_type;location;lat;lon;timestamp;temperature;humidity
23813;DHT22;12087;45.190;5.688;2024-02-21T00:04:00;8.50;99.90
23813;DHT22;12087;45.190;5.688;2024-02-21T00:09:22;8.50;99.90
23813;DHT22;12087;45.190;5.688;2024-02-21T00:14:44;8.60;99.90
23813;DHT22;12087;45.190;5.688;2024-02-21T00:20:09;8.60;99.90
23813;DHT22;12087;45.190;5.688;2024-02-21T00:25:31;8.60;99.90
23813;DHT22;12087;45.190;5.688;2024-02-21T00:30:53;8.60;99.90
23813;DHT22;12087;45.190;5.688;2024-02-21T00:36:17;8.60;99.90
23813;DHT22;12087;45.190;5.688;2024-02-21T00:41:39;8.60;99.90
23813;DHT22;12087;45.190;5.688;2024-02-21T00:47:01;8.50;99.90
23813;DHT22;12087;45.190;5.688;2024-02-21T00:52:24;8.50;99.90
23813;DHT22;12087;45.190;5.688;2024-02-21T00:57:47;8.60;99.90
23813;DHT22;12087;45.190;5.688;2024-02-21T01:03:09;8.50;99.90
23813;DHT22;12087;45.190;5.688;2024-02-21T01:08:32;8.40;99.90
23813;DHT22;12087;45.190;5.688;2024-02-21T01:13:55;8.40;99.90
23813;DHT22;12087;45.190;5.688;2024-02-21T01:19:18;8.40;99.90
23813;DHT22;12087;45.190;5.688;2024-02-21T01:24:42;8.40;99.90
23813;DHT22;12087;45.190;5.688;2024-02-21T01:30:05;8.40;99.90
23813;DHT22;12087;45.190;5.688;2024-02-21T01:35:27;8.40;99.90
23813;DHT22;12087;45.190;5.688;2024-02-21T01:40:51;8.40;99.90
23813;DHT22;12087;45.190;5.688;2024-02-21T01:46:13;8.40;99.90
23813;DHT22;12087;45.190;5.688;2024-02-21T01:51:35;8.30;99.90
23813;DHT22;12087;45.190;5.688;2024-02-21T01:57:00;8.40;99.90
23813;DHT22;12087;45.190;5.688;2024-02-21T02:02:23;8.40;99.90
23813;DHT22;12087;45.190;5.688;2024-02-21T02:07:46;8.30;99.90
23813;DHT22;12087;45.190;5.688;2024-02-21T02:13:10;8.20;99.90
23813;DHT22;12087;45.190;5.688;2024-02-21T02:18:32;8.20;99.90
23813;DHT22;12087;45.190;5.688;2024-02-21T02:23:56;8.20;99.90
23813;DHT22;12087;45.190;5.688;2024-02-21T02:29:18;8.10;99.90
23813;DHT22;12087;45.190;5.688;2024-02-21T02:34:40;8.10;99.90
23813;DHT22;12087;45.190;5.688;2024-02-21T02:40:05;8.00;99.90
23813;DHT22;12087;45.190;5.688;2024-02-21T02:45:27;8.10;99.90
23813;DHT22;12087;45.190;5.688;2024-02-21T02:50:49;8.10;99.90
23813;DHT22;12087;45.190;5.688;2024-02-21T02:56:16;8.10;99.90
23813;DHT22;12087;45.190;5.688;2024-02-21T03:01:38;8.10;99.90
23813;DHT22;12087;45.190;5.688;2024-02-21T03:07:00;8.10;99.90
23813;DHT22;12087;45.190;5.688;2024-02-21T03:12:24;8.10;99.90
23813;DHT22;12087;45.190;5.688;2024-02-21T03:17:48;8.20;99.90
23813;DHT22;12087;45.190;5.688;2024-02-21T03:23:10;8.10;99.90
23813;DHT22;12087;45.190;5.688;2024-02-21T03:28:34;8.10;99.90
23813;DHT22;12087;45.190;5.688;2024-02-21T03:33:56;8.00;99.90
23813;DHT22;12087;45.190;5.688;2024-02-21T03:39:18;8.00;99.90
23813;DHT22;12087;45.190;5.688;2024-02-21T03:44:43;8.00;99.90
23813;DHT22;12087;45.190;5.688;2024-02-21T03:50:06;8.00;99.90
23813;DHT22;12087;45.190;5.688;2024-02-21T03:55:28;8.00;99.90
23813;DHT22;12087;45.190;5.688;2024-02-21T04:00:52;7.90;99.90
23813;DHT22;12087;45.190;5.688;2024-02-21T04:06:14;7.90;99.90
23813;DHT22;12087;45.190;5.688;2024-02-21T04:11:36;7.90;99.90
23813;DHT22;12087;45.190;5.688;2024-02-21T04:17:00;8.00;99.90
23813;DHT22;12087;45.190;5.688;2024-02-21T04:22:22;7.90;99.90
23813;DHT22;12087;45.190;5.688;2024-02-21T04:27:44;8.00;99.90
23813;DHT22;12087;45.190;5.688;2024-02-21T04:33:08;7.90;99.90
23813;DHT22;12087;45.190;5.688;2024-02-21T04:38:30;8.00;99.90
23813;DHT22;12087;45.190;5.688;2024-02-21T04:43:53;8.00;99.90
23813;DHT22;12087;45.190;5.688;2024-02-21T04:49:16;8.00;99.90
23813;DHT22;12087;45.190;5.688;2024-02-21T04:54:38;8.00;99.90
23813;DHT22;12087;45.190;5.688;2024-02-21T05:00:01;8.00;99.90
23813;DHT22;12087;45.190;5.688;2024-02-21T05:05:25;7.90;99.90
23813;DHT22;12087;45.190;5.688;2024-02-21T05:10:48;7.90;99.90
23813;DHT22;12087;45.190;5.688;2024-02-21T05:16:10;7.90;99.90
23813;DHT22;12087;45.190;5.688;2024-02-21T05:21:33;7.80;99.90
23813;DHT22;12087;45.190;5.688;2024-02-21T05:26:55;7.80;99.90
23813;DHT22;12087;45.190;5.688;2024-02-21T05:32:18;7.90;99.90
23813;DHT22;12087;45.190;5.688;2024-02-21T05:37:41;7.90;99.90
23813;DHT22;12087;45.190;5.688;2024-02-21T05:43:03;7.80;99.90
23813;DHT22;12087;45.190;5.688;2024-02-21T05:48:26;7.80;99.90
23813;DHT22;12087;45.190;5.688;2024-02-21T05:53:49;7.80;99.90
23813;DHT22;12087;45.190;5.688;2024-02-21T05:59:11;7.80;99.90
23813;DHT22;12087;45.190;5.688;2024-02-21T06:04:34;7.80;99.90
23813;DHT22;12087;45.190;5.688;2024-02-21T06:09:57;7.70;99.90
23813;DHT22;12087;45.190;5.688;2024-02-21T06:15:19;7.70;99.90
23813;DHT22;12087;45.190;5.688;2024-02-21T06:20:42;7.70;99.90
23813;DHT22;12087;45.190;5.688;2024-02-21T06:26:06;7.70;99.90
23813;DHT22;12087;45.190;5.688;2024-02-21T06:31:28;7.60;99.90
23813;DHT22;12087;45.190;5.688;2024-02-21T06:36:52;7.50;99.90
23813;DHT22;12087;45.190;5.688;2024-02-21T06:42:15;7.50;99.90
23813;DHT22;12087;45.190;5.688;2024-02-21T06:47:38;7.50;99.90
23813;DHT22;12087;45.190;5.688;2024-02-21T06:53:00;7.50;99.90
23813;DHT22;12087;45.190;5.688;2024-02-21T06:58:23;7.50;99.90
23813;DHT22;12087;45.190;5.688;2024-02-21T07:03:46;7.50;99.90
23813;DHT22;12087;45.190;5.688;2024-02-21T07:09:08;7.50;99.90
23813;DHT22;12087;45.190;5.688;2024-02-21T07:14:32;7.60;99.90
23813;DHT22;12087;45.190;5.688;2024-02-21T07:19:54;7.50;99.90
23813;DHT22;12087;45.190;5.688;2024-02-21T07:25:17;7.60;99.90
23813;DHT22;12087;45.190;5.688;2024-02-21T07:30:41;7.70;99.90
23813;DHT22;12087;45.190;5.688;2024-02-21T07:36:06;7.80;99.90
23813;DHT22;12087;45.190;5.688;2024-02-21T07:41:29;7.90;99.90
23813;DHT22;12087;45.190;5.688;2024-02-21T07:46:52;8.00;99.90
23813;DHT22;12087;45.190;5.688;2024-02-21T07:52:14;8.00;99.90
23813;DHT22;12087;45.190;5.688;2024-02-21T07:57:37;8.00;99.90
23813;DHT22;12087;45.190;5.688;2024-02-21T08:03:00;8.10;99.90
23813;DHT22;12087;45.190;5.688;2024-02-21T08:08:23;8.10;99.90
23813;DHT22;12087;45.190;5.688;2024-02-21T08:13:45;8.10;99.90
23813;DHT22;12087;45.190;5.688;2024-02-21T08:19:10;8.10;99.90
23813;DHT22;12087;45.190;5.688;2024-02-21T08:24:32;8.10;99.90
23813;DHT22;12087;45.190;5.688;2024-02-21T08:29:54;8.10;99.90
23813;DHT22;12087;45.190;5.688;2024-02-21T08:35:18;8.20;99.90
23813;DHT22;12087;45.190;5.688;2024-02-21T08:40:40;8.30;99.90
23813;DHT22;12087;45.190;5.688;2024-02-21T08:46:04;8.40;99.90
23813;DHT22;12087;45.190;5.688;2024-02-21T08:51:28;8.60;99.90
23813;DHT22;12087;45.190;5.688;2024-02-21T08:56:50;8.70;99.90
23813;DHT22;12087;45.190;5.688;2024-02-21T09:02:12;8.90;99.90
23813;DHT22;12087;45.190;5.688;2024-02-21T09:07:38;8.90;99.90
23813;DHT22;12087;45.190;5.688;2024-02-21T09:13:00;9.00;99.90
23813;DHT22;12087;45.190;5.688;2024-02-21T09:18:24;9.20;99.90
23813;DHT22;12087;45.190;5.688;2024-02-21T09:23:48;9.30;99.90
23813;DHT22;12087;45.190;5.688;2024-02-21T09:29:10;9.50;99.90
23813;DHT22;12087;45.190;5.688;2024-02-21T09:34:32;9.50;99.90
23813;DHT22;12087;45.190;5.688;2024-02-21T09:39:56;9.60;99.90
23813;DHT22;12087;45.190;5.688;2024-02-21T09:45:20;9.80;99.90
23813;DHT22;12087;45.190;5.688;2024-02-21T09:50:43;9.90;99.90
23813;DHT22;12087;45.190;5.688;2024-02-21T09:56:09;10.00;99.90
23813;DHT22;12087;45.190;5.688;2024-02-21T10:01:32;10.20;99.90
23813;DHT22;12087;45.190;5.688;2024-02-21T10:06:55;10.20;99.90
23813;DHT22;12087;45.190;5.688;2024-02-21T10:12:18;10.30;99.90
23813;DHT22;12087;45.190;5.688;2024-02-21T10:17:41;10.50;99.90
23813;DHT22;12087;45.190;5.688;2024-02-21T10:23:03;10.60;99.90
23813;DHT22;12087;45.190;5.688;2024-02-21T10:28:30;10.80;99.90
23813;DHT22;12087;45.190;5.688;2024-02-21T10:33:56;11.00;99.90
23813;DHT22;12087;45.190;5.688;2024-02-21T10:39:18;11.10;99.90
23813;DHT22;12087;45.190;5.688;2024-02-21T10:44:42;11.30;99.90
23813;DHT22;12087;45.190;5.688;2024-02-21T10:50:06;11.40;99.90
23813;DHT22;12087;45.190;5.688;2024-02-21T10:55:46;11.50;99.90
23813;DHT22;12087;45.190;5.688;2024-02-21T11:01:14;11.60;99.90
23813;DHT22;12087;45.190;5.688;2024-02-21T11:06:40;11.70;99.90
23813;DHT22;12087;45.190;5.688;2024-02-21T11:12:04;11.80;99.90
23813;DHT22;12087;45.190;5.688;2024-02-21T11:17:28;12.00;99.90
23813;DHT22;12087;45.190;5.688;2024-02-21T11:22:50;12.10;99.90
23813;DHT22;12087;45.190;5.688;2024-02-21T11:28:13;12.30;99.90
23813;DHT22;12087;45.190;5.688;2024-02-21T11:33:39;12.40;99.90
23813;DHT22;12087;45.190;5.688;2024-02-21T11:39:04;12.50;99.90
23813;DHT22;12087;45.190;5.688;2024-02-21T11:44:27;12.70;99.90
23813;DHT22;12087;45.190;5.688;2024-02-21T11:49:50;12.80;99.90
23813;DHT22;12087;45.190;5.688;2024-02-21T11:55:14;12.90;99.90
23813;DHT22;12087;45.190;5.688;2024-02-21T12:00:36;13.00;99.90
23813;DHT22;12087;45.190;5.688;2024-02-21T12:06:00;13.10;99.90
23813;DHT22;12087;45.190;5.688;2024-02-21T12:11:23;13.20;99.90
23813;DHT22;12087;45.190;5.688;2024-02-21T12:16:46;13.30;99.90
23813;DHT22;12087;45.190;5.688;2024-02-21T12:22:16;13.40;99.90
23813;DHT22;12087;45.190;5.688;2024-02-21T12:27:38;13.50;99.90
23813;DHT22;12087;45.190;5.688;2024-02-21T12:33:01;13.60;99.90
23813;DHT22;12087;45.190;5.688;2024-02-21T12:38:26;13.60;99.90
23813;DHT22;12087;45.190;5.688;2024-02-21T12:43:48;13.70;99.90
23813;DHT22;12087;45.190;5.688;2024-02-21T12:49:10;13.80;99.90
23813;DHT22;12087;45.190;5.688;2024-02-21T12:54:34;13.90;99.90
23813;DHT22;12087;45.190;5.688;2024-02-21T12:59:56;14.00;99.90
23813;DHT22;12087;45.190;5.688;2024-02-21T13:05:18;14.10;99.90
23813;DHT22;12087;45.190;5.688;2024-02-21T13:10:42;14.20;99.90
23813;DHT22;12087;45.190;5.688;2024-02-21T13:16:05;14.20;99.90
23813;DHT22;12087;45.190;5.688;2024-02-21T13:21:27;14.30;99.90
23813;DHT22;12087;45.190;5.688;2024-02-21T13:26:51;14.40;99.90
23813;DHT22;12087;45.190;5.688;2024-02-21T13:32:13;14.40;99.90
23813;DHT22;12087;45.190;5.688;2024-02-21T13:37:36;14.40;99.90
23813;DHT22;12087;45.190;5.688;2024-02-21T13:43:00;14.50;99.90
23813;DHT22;12087;45.190;5.688;2024-02-21T13:48:22;14.50;99.90
23813;DHT22;12087;45.190;5.688;2024-02-21T13:53:45;14.60;99.90
23813;DHT22;12087;45.190;5.688;2024-02-21T13:59:08;14.60;99.90
23813;DHT22;12087;45.190;5.688;2024-02-21T14:04:31;14.50;99.90
23813;DHT22;12087;45.190;5.688;2024-02-21T14:09:53;14.40;99.90
23813;DHT22;12087;45.190;5.688;2024-02-21T14:15:17;14.30;99.90
23813;DHT22;12087;45.190;5.688;2024-02-21T14:20:39;14.40;99.90
23813;DHT22;12087;45.190;5.688;2024-02-21T14:26:01;14.40;99.90
23813;DHT22;12087;45.190;5.688;2024-02-21T14:31:25;14.50;99.90
23813;DHT22;12087;45.190;5.688;2024-02-21T14:36:47;14.60;99.90
23813;DHT22;12087;45.190;5.688;2024-02-21T14:42:10;14.60;99.90
23813;DHT22;12087;45.190;5.688;2024-02-21T14:47:33;14.40;99.90
23813;DHT22;12087;45.190;5.688;2024-02-21T14:52:59;14.40;99.90
23813;DHT22;12087;45.190;5.688;2024-02-21T14:58:21;14.40;99.90
23813;DHT22;12087;45.190;5.688;2024-02-21T15:03:46;14.40;99.90
23813;DHT22;12087;45.190;5.688;2024-02-21T15:09:08;14.50;99.90
23813;DHT22;12087;45.190;5.688;2024-02-21T15:14:30;14.50;99.90
23813;DHT22;12087;45.190;5.688;2024-02-21T15:19:54;14.40;99.90
23813;DHT22;12087;45.190;5.688;2024-02-21T15:25:16;14.50;99.90
23813;DHT22;12087;45.190;5.688;2024-02-21T15:30:39;14.50;99.90
23813;DHT22;12087;45.190;5.688;2024-02-21T15:36:03;14.50;99.90
23813;DHT22;12087;45.190;5.688;2024-02-21T15:41:25;14.50;99.90
23813;DHT22;12087;45.190;5.688;2024-02-21T15:46:47;14.40;99.90
23813;DHT22;12087;45.190;5.688;2024-02-21T15:52:11;14.40;99.90
23813;DHT22;12087;45.190;5.688;2024-02-21T15:57:33;14.40;99.90
23813;DHT22;12087;45.190;5.688;2024-02-21T16:02:55;14.40;99.90
23813;DHT22;12087;45.190;5.688;2024-02-21T16:08:19;14.40;99.90
23813;DHT22;12087;45.190;5.688;2024-02-21T16:13:41;14.40;99.90
23813;DHT22;12087;45.190;5.688;2024-02-21T16:19:04;14.40;99.90
23813;DHT22;12087;45.190;5.688;2024-02-21T16:24:28;14.40;99.90
23813;DHT22;12087;45.190;5.688;2024-02-21T16:29:50;14.40;99.90
23813;DHT22;12087;45.190;5.688;2024-02-21T16:35:13;14.40;99.90
23813;DHT22;12087;45.190;5.688;2024-02-21T16:40:38;14.40;99.90
23813;DHT22;12087;45.190;5.688;2024-02-21T16:46:01;14.40;99.90
23813;DHT22;12087;45.190;5.688;2024-02-21T16:51:24;14.30;99.90
23813;DHT22;12087;45.190;5.688;2024-02-21T16:56:47;14.30;99.90
23813;DHT22;12087;45.190;5.688;2024-02-21T17:02:10;14.20;99.90
23813;DHT22;12087;45.190;5.688;2024-02-21T17:07:32;14.20;99.90
23813;DHT22;12087;45.190;5.688;2024-02-21T17:12:56;14.10;99.90
23813;DHT22;12087;45.190;5.688;2024-02-21T17:18:19;14.10;99.90
23813;DHT22;12087;45.190;5.688;2024-02-21T17:23:43;14.00;99.90
23813;DHT22;12087;45.190;5.688;2024-02-21T17:29:06;13.90;99.90
23813;DHT22;12087;45.190;5.688;2024-02-21T17:34:29;13.80;99.90
23813;DHT22;12087;45.190;5.688;2024-02-21T17:39:51;13.70;99.90
23813;DHT22;12087;45.190;5.688;2024-02-21T17:45:15;13.60;99.90
23813;DHT22;12087;45.190;5.688;2024-02-21T17:50:37;13.60;99.90
23813;DHT22;12087;45.190;5.688;2024-02-21T17:55:59;13.50;99.90
23813;DHT22;12087;45.190;5.688;2024-02-21T18:01:23;13.50;99.90
23813;DHT22;12087;45.190;5.688;2024-02-21T18:06:45;13.40;99.90
23813;DHT22;12087;45.190;5.688;2024-02-21T18:12:07;13.40;99.90
23813;DHT22;12087;45.190;5.688;2024-02-21T18:17:31;13.30;99.90
23813;DHT22;12087;45.190;5.688;2024-02-21T18:22:53;13.30;99.90
23813;DHT22;12087;45.190;5.688;2024-02-21T18:28:16;13.30;99.90
23813;DHT22;12087;45.190;5.688;2024-02-21T18:33:39;13.20;99.90
23813;DHT22;12087;45.190;5.688;2024-02-21T18:39:05;13.20;99.90
23813;DHT22;12087;45.190;5.688;2024-02-21T18:44:27;13.20;99.90
23813;DHT22;12087;45.190;5.688;2024-02-21T18:49:51;13.10;99.90
23813;DHT22;12087;45.190;5.688;2024-02-21T18:55:13;13.10;99.90
23813;DHT22;12087;45.190;5.688;2024-02-21T19:00:36;13.00;99.90
23813;DHT22;12087;45.190;5.688;2024-02-21T19:06:00;13.00;99.90
23813;DHT22;12087;45.190;5.688;2024-02-21T19:11:23;13.00;99.90
23813;DHT22;12087;45.190;5.688;2024-02-21T19:16:45;12.90;99.90
23813;DHT22;12087;45.190;5.688;2024-02-21T19:22:09;12.90;99.90
23813;DHT22;12087;45.190;5.688;2024-02-21T19:27:31;12.80;99.90
23813;DHT22;12087;45.190;5.688;2024-02-21T19:32:53;12.80;99.90
23813;DHT22;12087;45.190;5.688;2024-02-21T19:38:17;12.70;99.90
23813;DHT22;12087;45.190;5.688;2024-02-21T19:43:39;12.70;99.90
23813;DHT22;12087;45.190;5.688;2024-02-21T19:49:01;12.60;99.90
23813;DHT22;12087;45.190;5.688;2024-02-21T19:54:25;12.60;99.90
23813;DHT22;12087;45.190;5.688;2024-02-21T19:59:47;12.60;99.90
23813;DHT22;12087;45.190;5.688;2024-02-21T20:05:10;12.50;99.90
23813;DHT22;12087;45.190;5.688;2024-02-21T20:10:34;12.50;99.90
23813;DHT22;12087;45.190;5.688;2024-02-21T20:15:56;12.50;99.90
23813;DHT22;12087;45.190;5.688;2024-02-21T20:21:18;12.40;99.90
23813;DHT22;12087;45.190;5.688;2024-02-21T20:26:43;12.40;99.90
23813;DHT22;12087;45.190;5.688;2024-02-21T20:32:06;12.40;99.90
23813;DHT22;12087;45.190;5.688;2024-02-21T20:37:28;12.40;99.90
23813;DHT22;12087;45.190;5.688;2024-02-21T20:42:52;12.50;99.90
23813;DHT22;12087;45.190;5.688;2024-02-21T20:48:14;12.50;99.90
23813;DHT22;12087;45.190;5.688;2024-02-21T20:53:36;12.50;99.90
23813;DHT22;12087;45.190;5.688;2024-02-21T20:59:00;12.50;99.90
23813;DHT22;12087;45.190;5.688;2024-02-21T21:04:22;12.60;99.90
23813;DHT22;12087;45.190;5.688;2024-02-21T21:09:44;12.60;99.90
23813;DHT22;12087;45.190;5.688;2024-02-21T21:15:09;12.60;99.90
23813;DHT22;12087;45.190;5.688;2024-02-21T21:20:31;12.60;99.90
23813;DHT22;12087;45.190;5.688;2024-02-21T21:25:55;12.70;99.90
23813;DHT22;12087;45.190;5.688;2024-02-21T21:31:18;12.70;99.90
23813;DHT22;12087;45.190;5.688;2024-02-21T21:36:40;12.60;99.90
23813;DHT22;12087;45.190;5.688;2024-02-21T21:42:03;12.60;99.90
23813;DHT22;12087;45.190;5.688;2024-02-21T21:47:27;12.70;99.90
23813;DHT22;12087;45.190;5.688;2024-02-21T21:52:50;12.70;99.90
23813;DHT22;12087;45.190;5.688;2024-02-21T21:58:12;12.60;99.90
23813;DHT22;12087;45.190;5.688;2024-02-21T22:03:35;12.60;99.90
23813;DHT22;12087;45.190;5.688;2024-02-21T22:08:57;12.60;99.90
23813;DHT22;12087;45.190;5.688;2024-02-21T22:14:20;12.50;99.90
23813;DHT22;12087;45.190;5.688;2024-02-21T22:19:43;12.50;99.90
23813;DHT22;12087;45.190;5.688;2024-02-21T22:25:06;12.50;99.90
23813;DHT22;12087;45.190;5.688;2024-02-21T22:30:28;12.40;99.90
23813;DHT22;12087;45.190;5.688;2024-02-21T22:35:52;12.30;99.90
23813;DHT22;12087;45.190;5.688;2024-02-21T22:41:14;12.30;99.90
23813;DHT22;12087;45.190;5.688;2024-02-21T22:46:36;12.30;99.90
23813;DHT22;12087;45.190;5.688;2024-02-21T22:52:02;12.30;99.90
23813;DHT22;12087;45.190;5.688;2024-02-21T22:57:24;12.30;99.90
23813;DHT22;12087;45.190;5.688;2024-02-21T23:02:46;12.20;99.90
23813;DHT22;12087;45.190;5.688;2024-02-21T23:08:11;12.10;99.90
23813;DHT22;12087;45.190;5.688;2024-02-21T23:13:34;12.10;99.90
23813;DHT22;12087;45.190;5.688;2024-02-21T23:18:57;12.00;99.90
23813;DHT22;12087;45.190;5.688;2024-02-21T23:24:21;12.00;99.90
23813;DHT22;12087;45.190;5.688;2024-02-21T23:29:44;11.90;99.90
23813;DHT22;12087;45.190;5.688;2024-02-21T23:35:07;11.90;99.90
23813;DHT22;12087;45.190;5.688;2024-02-21T23:40:31;11.80;99.90
23813;DHT22;12087;45.190;5.688;2024-02-21T23:45:53;11.80;99.90
23813;DHT22;12087;45.190;5.688;2024-02-21T23:51:16;11.80;99.90
23813;DHT22;12087;45.190;5.688;2024-02-21T23:56:43;11.70;99.90
